createdAt,value
2018-05-11T00:01:38.201Z,14.20
2018-05-11T00:04:06.448Z,14.60
2018-05-11T00:06:34.697Z,14.50
2018-05-11T00:09:02.918Z,14.50
2018-05-11T00:11:31.146Z,14.70
2018-05-11T00:14:00.157Z,15.00
2018-05-11T00:16:28.424Z,15.00
2018-05-11T00:18:56.696Z,14.60
2018-05-11T00:21:24.986Z,14.20
2018-05-11T00:23:53.210Z,14.50
2018-05-11T00:26:21.520Z,14.70
2018-05-11T00:28:49.789Z,14.80
2018-05-11T00:31:18.761Z,14.40
2018-05-11T00:33:47.747Z,14.50
2018-05-11T00:36:15.950Z,14.50
2018-05-11T00:38:44.170Z,14.60
2018-05-11T00:41:12.364Z,14.80
2018-05-11T00:43:40.593Z,14.80
2018-05-11T00:46:08.805Z,14.90
2018-05-11T00:48:37.025Z,15.10
2018-05-11T00:51:05.293Z,15.10
2018-05-11T00:53:33.461Z,15.00
2018-05-11T00:56:02.476Z,15.10
2018-05-11T00:58:30.737Z,15.00
2018-05-11T01:00:59.696Z,14.70
2018-05-11T01:03:27.910Z,14.70
2018-05-11T01:05:56.114Z,14.80
2018-05-11T01:08:24.360Z,14.90
2018-05-11T01:10:52.578Z,15.10
2018-05-11T01:13:20.813Z,15.10
2018-05-11T01:15:49.099Z,15.10
2018-05-11T01:18:17.336Z,15.10
2018-05-11T01:20:45.547Z,15.10
2018-05-11T01:23:13.916Z,14.80
2018-05-11T01:25:42.124Z,14.80
2018-05-11T01:28:10.364Z,15.00
2018-05-11T01:30:38.563Z,14.90
2018-05-11T01:33:06.806Z,14.80
2018-05-11T01:35:35.013Z,14.70
2018-05-11T01:38:03.253Z,14.60
2018-05-11T01:40:31.466Z,14.60
2018-05-11T01:42:59.688Z,14.50
2018-05-11T01:45:28.660Z,14.60
2018-05-11T01:47:56.880Z,14.60
2018-05-11T01:50:25.169Z,14.70
2018-05-11T01:52:53.417Z,14.60
2018-05-11T01:55:22.405Z,14.40
2018-05-11T01:57:51.417Z,14.40
2018-05-11T02:00:19.616Z,14.40
2018-05-11T02:02:47.842Z,14.40
2018-05-11T02:05:16.821Z,14.40
2018-05-11T02:07:45.049Z,14.30
2018-05-11T02:10:13.366Z,14.40
2018-05-11T02:12:41.554Z,14.40
2018-05-11T02:15:10.662Z,14.30
2018-05-11T02:17:39.672Z,14.50
2018-05-11T02:20:08.247Z,14.40
2018-05-11T02:22:37.209Z,14.50
2018-05-11T02:25:05.432Z,14.40
2018-05-11T02:27:33.644Z,14.50
2018-05-11T02:30:02.126Z,14.50
2018-05-11T02:32:30.327Z,14.50
2018-05-11T02:34:59.309Z,14.40
2018-05-11T02:37:27.608Z,14.40
2018-05-11T02:39:55.893Z,14.40
2018-05-11T02:42:24.125Z,14.40
2018-05-11T02:44:52.353Z,14.30
2018-05-11T02:47:20.588Z,14.30
2018-05-11T02:49:48.817Z,14.20
2018-05-11T02:52:17.063Z,14.20
2018-05-11T02:54:45.289Z,14.20
2018-05-11T02:57:13.496Z,14.20
2018-05-11T02:59:42.497Z,14.20
2018-05-11T03:02:11.468Z,14.20
2018-05-11T03:04:40.462Z,14.20
2018-05-11T03:07:08.793Z,14.20
2018-05-11T03:09:37.021Z,14.20
2018-05-11T03:12:06.024Z,14.10
2018-05-11T03:14:35.129Z,14.10
2018-05-11T03:17:04.105Z,14.10
2018-05-11T03:19:33.121Z,14.30
2018-05-11T03:22:01.332Z,14.20
2018-05-11T03:24:29.545Z,14.30
2018-05-11T03:26:58.528Z,14.30
2018-05-11T03:29:26.753Z,14.30
2018-05-11T03:31:54.958Z,14.30
2018-05-11T03:34:23.185Z,14.20
2018-05-11T03:36:51.407Z,14.20
2018-05-11T03:39:19.637Z,14.20
2018-05-11T03:41:47.915Z,14.10
2018-05-11T03:44:16.156Z,13.80
2018-05-11T03:46:44.463Z,13.30
2018-05-11T03:49:12.692Z,13.30
2018-05-11T03:51:41.000Z,13.40
2018-05-11T03:54:09.960Z,13.90
2018-05-11T03:56:38.189Z,13.90
2018-05-11T03:59:06.404Z,13.60
2018-05-11T04:01:46.592Z,13.20
2018-05-11T04:04:27.582Z,13.10
2018-05-11T04:07:08.512Z,13.00
2018-05-11T04:09:36.736Z,13.10
2018-05-11T04:12:04.967Z,13.00
2018-05-11T04:14:33.195Z,13.20
2018-05-11T04:17:01.410Z,13.30
2018-05-11T04:19:29.721Z,13.30
2018-05-11T04:21:57.952Z,13.10
2018-05-11T04:24:26.160Z,13.10
2018-05-11T04:26:55.165Z,13.10
2018-05-11T04:29:23.377Z,13.10
2018-05-11T04:31:51.705Z,13.40
2018-05-11T04:34:20.704Z,13.70
2018-05-11T04:36:48.985Z,13.70
2018-05-11T04:39:17.263Z,13.70
2018-05-11T04:41:45.536Z,13.80
2018-05-11T04:44:13.744Z,13.80
2018-05-11T04:46:42.048Z,13.90
2018-05-11T04:49:10.260Z,13.90
2018-05-11T04:51:39.256Z,14.00
2018-05-11T04:54:07.538Z,14.00
2018-05-11T04:56:35.754Z,14.10
2018-05-11T04:59:04.086Z,14.20
2018-05-11T05:01:32.372Z,14.20
2018-05-11T05:04:00.586Z,14.20
2018-05-11T05:06:28.821Z,14.20
2018-05-11T05:08:57.056Z,14.20
2018-05-11T05:11:25.522Z,14.20
2018-05-11T05:13:53.699Z,14.30
2018-05-11T05:16:22.012Z,14.30
2018-05-11T05:18:50.230Z,14.30
2018-05-11T05:21:19.452Z,14.40
2018-05-11T05:23:47.662Z,14.30
2018-05-11T05:26:15.896Z,14.40
2018-05-11T05:28:44.208Z,14.40
2018-05-11T05:31:12.441Z,14.40
2018-05-11T05:33:40.653Z,14.40
2018-05-11T05:36:09.637Z,14.70
2018-05-11T05:38:38.616Z,14.80
2018-05-11T05:41:06.864Z,14.80
2018-05-11T05:43:35.075Z,14.80
2018-05-11T05:46:04.057Z,15.00
2018-05-11T05:48:32.368Z,15.00
2018-05-11T05:51:00.620Z,15.00
2018-05-11T05:53:28.840Z,14.90
2018-05-11T05:55:57.069Z,14.90
2018-05-11T05:58:26.119Z,15.10
2018-05-11T06:00:54.298Z,15.10
2018-05-11T06:03:22.516Z,15.30
2018-05-11T06:05:51.500Z,15.50
2018-05-11T06:08:20.574Z,15.60
2018-05-11T06:10:48.849Z,15.60
2018-05-11T06:13:17.073Z,15.70
2018-05-11T06:15:45.302Z,15.70
2018-05-11T06:18:13.513Z,15.90
2018-05-11T06:20:41.738Z,15.80
2018-05-11T06:23:10.235Z,15.90
2018-05-11T06:25:38.585Z,16.00
2018-05-11T06:28:06.816Z,16.00
2018-05-11T06:30:35.812Z,16.30
2018-05-11T06:33:04.101Z,16.30
2018-05-11T06:35:32.313Z,16.30
2018-05-11T06:38:00.572Z,16.40
2018-05-11T06:40:28.799Z,16.40
2018-05-11T06:42:57.025Z,16.50
2018-05-11T06:45:25.400Z,16.60
2018-05-11T06:47:53.615Z,16.80
2018-05-11T06:50:21.837Z,16.80
2018-05-11T06:52:50.072Z,16.90
2018-05-11T06:55:18.364Z,16.90
2018-05-11T06:57:46.640Z,16.90
2018-05-11T07:00:14.868Z,16.90
2018-05-11T07:02:43.206Z,17.00
2018-05-11T07:05:11.465Z,17.10
2018-05-11T07:07:39.747Z,17.20
2018-05-11T07:10:08.185Z,17.20
2018-05-11T07:12:36.437Z,17.30
2018-05-11T07:15:04.678Z,17.30
2018-05-11T07:17:32.916Z,17.30
2018-05-11T07:20:01.247Z,17.40
2018-05-11T07:22:29.518Z,17.60
2018-05-11T07:24:57.720Z,17.60
2018-05-11T07:27:25.963Z,17.70
2018-05-11T07:29:54.216Z,17.70
2018-05-11T07:32:23.212Z,18.10
2018-05-11T07:34:52.206Z,18.10
2018-05-11T07:37:21.195Z,18.10
2018-05-11T07:39:50.208Z,18.10
2018-05-11T07:42:18.473Z,18.00
2018-05-11T07:44:46.689Z,18.10
2018-05-11T07:47:14.913Z,17.90
2018-05-11T07:49:43.897Z,18.20
2018-05-11T07:52:12.901Z,18.40
2018-05-11T07:54:41.882Z,18.30
2018-05-11T07:57:10.113Z,18.30
2018-05-11T07:59:38.386Z,18.40
2018-05-11T08:02:06.637Z,18.30
2018-05-11T08:04:34.840Z,18.60
2018-05-11T08:07:03.122Z,18.70
2018-05-11T08:09:31.813Z,18.70
2018-05-11T08:12:00.001Z,18.70
2018-05-11T08:14:29.761Z,19.00
2018-05-11T08:16:57.987Z,19.10
2018-05-11T08:19:26.200Z,18.80
2018-05-11T08:21:54.436Z,19.10
2018-05-11T08:24:22.760Z,19.20
2018-05-11T08:26:51.093Z,19.20
2018-05-11T08:29:19.269Z,18.60
2018-05-11T08:31:47.494Z,18.70
2018-05-11T08:34:15.713Z,18.10
2018-05-11T08:36:45.259Z,18.60
2018-05-11T08:39:13.481Z,18.80
2018-05-11T08:41:41.719Z,19.10
2018-05-11T08:44:09.949Z,19.30
2018-05-11T08:46:38.169Z,19.40
2018-05-11T08:49:06.433Z,19.40
2018-05-11T08:51:34.708Z,19.30
2018-05-11T08:54:02.953Z,19.50
2018-05-11T08:56:31.262Z,19.40
2018-05-11T08:58:59.505Z,19.70
2018-05-11T09:01:27.829Z,19.70
2018-05-11T09:03:56.055Z,19.60
2018-05-11T09:06:24.284Z,19.30
2018-05-11T09:08:52.515Z,19.60
2018-05-11T09:11:21.720Z,19.60
2018-05-11T09:13:50.738Z,19.60
2018-05-11T09:16:19.036Z,19.60
2018-05-11T09:18:47.252Z,19.80
2018-05-11T09:21:17.382Z,19.90
2018-05-11T09:23:46.046Z,19.80
2018-05-11T09:26:14.333Z,19.70
2018-05-11T09:28:42.678Z,19.80
2018-05-11T09:31:10.873Z,20.00
2018-05-11T09:33:39.180Z,20.10
2018-05-11T09:36:07.403Z,20.20
2018-05-11T09:38:37.267Z,20.40
2018-05-11T09:41:06.651Z,20.40
2018-05-11T09:43:35.668Z,19.70
2018-05-11T09:46:03.880Z,19.70
2018-05-11T09:48:32.119Z,19.90
2018-05-11T09:51:00.338Z,20.10
2018-05-11T09:53:28.669Z,20.40
2018-05-11T09:55:56.884Z,20.70
2018-05-11T09:58:25.130Z,20.60
2018-05-11T10:00:53.505Z,20.20
2018-05-11T10:03:21.621Z,20.40
2018-05-11T10:05:49.941Z,20.50
2018-05-11T10:08:18.158Z,20.50
2018-05-11T10:10:46.393Z,20.30
2018-05-11T10:13:15.360Z,19.50
2018-05-11T10:15:50.428Z,20.10
2018-05-11T10:18:18.706Z,20.10
2018-05-11T10:20:46.955Z,20.40
2018-05-11T10:23:16.630Z,20.30
2018-05-11T10:25:44.878Z,20.30
2018-05-11T10:28:13.091Z,20.60
2018-05-11T10:30:41.313Z,20.60
2018-05-11T10:33:09.536Z,20.50
2018-05-11T10:35:37.848Z,20.30
2018-05-11T10:38:06.820Z,20.20
2018-05-11T10:40:35.841Z,20.20
2018-05-11T10:43:04.439Z,20.20
2018-05-11T10:45:32.670Z,20.10
2018-05-11T10:48:00.889Z,20.20
2018-05-11T10:50:29.120Z,20.10
2018-05-11T10:52:58.123Z,20.20
2018-05-11T10:55:27.112Z,20.20
2018-05-11T10:57:56.107Z,20.30
2018-05-11T11:00:25.101Z,20.40
2018-05-11T11:02:54.522Z,20.50
2018-05-11T11:05:25.561Z,20.50
2018-05-11T11:07:57.695Z,20.50
2018-05-11T11:10:26.620Z,20.70
2018-05-11T11:12:54.856Z,20.60
2018-05-11T11:15:23.093Z,20.40
2018-05-11T11:17:51.792Z,20.40
2018-05-11T11:20:20.019Z,20.40
2018-05-11T11:22:49.020Z,20.40
2018-05-11T11:25:19.297Z,20.40
2018-05-11T11:27:47.538Z,20.60
2018-05-11T11:30:15.772Z,20.60
2018-05-11T11:32:44.768Z,20.60
2018-05-11T11:35:13.774Z,20.90
2018-05-11T11:37:41.990Z,20.90
2018-05-11T11:40:10.593Z,20.90
2018-05-11T11:42:38.812Z,21.10
2018-05-11T11:45:07.051Z,21.10
2018-05-11T11:47:35.318Z,20.90
2018-05-11T11:50:03.802Z,20.80
2018-05-11T11:52:32.120Z,20.90
2018-05-11T11:55:01.142Z,21.00
2018-05-11T11:57:29.365Z,21.10
2018-05-11T11:59:58.362Z,20.90
2018-05-11T12:02:27.363Z,20.50
2018-05-11T12:04:56.477Z,20.40
2018-05-11T12:07:24.687Z,20.40
2018-05-11T12:09:52.916Z,20.40
2018-05-11T12:12:21.134Z,20.50
2018-05-11T12:14:49.463Z,20.50
2018-05-11T12:17:17.690Z,20.80
2018-05-11T12:19:45.907Z,20.80
2018-05-11T12:22:14.898Z,20.70
2018-05-11T12:24:45.013Z,20.60
2018-05-11T12:27:14.012Z,20.90
2018-05-11T12:29:43.000Z,20.90
2018-05-11T12:32:11.996Z,21.00
2018-05-11T12:34:40.981Z,21.00
2018-05-11T12:37:10.018Z,20.80
2018-05-11T12:39:38.248Z,20.80
2018-05-11T12:42:07.249Z,20.80
2018-05-11T12:44:36.232Z,20.90
2018-05-11T12:47:05.224Z,20.90
2018-05-11T12:49:34.212Z,20.90
2018-05-11T12:52:03.220Z,20.90
2018-05-11T12:54:31.501Z,20.90
2018-05-11T12:56:59.679Z,21.00
2018-05-11T12:59:27.896Z,20.90
2018-05-11T13:01:56.228Z,21.10
2018-05-11T13:04:24.528Z,21.10
2018-05-11T13:06:52.764Z,21.40
2018-05-11T13:09:20.976Z,21.50
2018-05-11T13:11:49.205Z,21.60
2018-05-11T13:14:17.511Z,21.70
2018-05-11T13:16:45.742Z,21.70
2018-05-11T13:19:13.957Z,21.50
2018-05-11T13:21:42.228Z,21.50
2018-05-11T13:24:11.284Z,21.40
2018-05-11T13:26:39.549Z,21.40
2018-05-11T13:29:07.765Z,21.40
2018-05-11T13:31:36.757Z,21.20
2018-05-11T13:34:05.740Z,21.30
2018-05-11T13:36:34.033Z,21.20
2018-05-11T13:39:02.262Z,21.40
2018-05-11T13:41:30.545Z,21.70
2018-05-11T13:43:58.724Z,21.80
2018-05-11T13:46:27.037Z,21.70
2018-05-11T13:48:55.253Z,21.90
2018-05-11T13:51:23.492Z,21.90
2018-05-11T13:53:51.766Z,22.00
2018-05-11T13:56:20.055Z,22.10
2018-05-11T13:58:48.253Z,22.30
2018-05-11T14:01:16.475Z,22.40
2018-05-11T14:03:45.468Z,22.70
2018-05-11T14:06:14.449Z,22.40
2018-05-11T14:08:42.694Z,22.40
2018-05-11T14:11:10.896Z,22.30
2018-05-11T14:13:39.941Z,22.10
2018-05-11T14:16:08.149Z,22.10
2018-05-11T14:18:36.419Z,22.20
2018-05-11T14:21:04.629Z,22.00
2018-05-11T14:23:33.632Z,21.80
2018-05-11T14:26:02.664Z,21.80
2018-05-11T14:28:30.940Z,21.90
2018-05-11T14:30:59.146Z,21.80
2018-05-11T14:33:27.398Z,21.80
2018-05-11T14:35:55.622Z,21.90
2018-05-11T14:38:24.612Z,21.90
2018-05-11T14:40:53.609Z,21.90
2018-05-11T14:43:22.984Z,21.90
2018-05-11T14:45:51.202Z,21.90
2018-05-11T14:48:19.436Z,21.90
2018-05-11T14:50:47.653Z,22.00
2018-05-11T14:53:15.890Z,23.20
2018-05-11T14:55:44.104Z,22.90
2018-05-11T14:58:12.342Z,22.50
2018-05-11T15:00:41.322Z,23.00
2018-05-11T15:03:09.819Z,23.00
2018-05-11T15:05:38.793Z,22.30
2018-05-11T15:08:07.030Z,22.30
2018-05-11T15:10:35.257Z,22.30
2018-05-11T15:13:04.268Z,22.20
2018-05-11T15:15:32.564Z,22.20
2018-05-11T15:18:00.724Z,22.10
2018-05-11T15:20:28.935Z,22.10
2018-05-11T15:22:57.163Z,22.10
2018-05-11T15:25:25.410Z,22.20
2018-05-11T15:27:53.616Z,22.30
2018-05-11T15:30:21.892Z,22.50
2018-05-11T15:32:50.124Z,22.00
2018-05-11T15:35:18.453Z,22.30
2018-05-11T15:37:46.676Z,22.20
2018-05-11T15:40:14.928Z,22.40
2018-05-11T15:42:43.128Z,22.20
2018-05-11T15:45:12.861Z,22.90
2018-05-11T15:47:41.088Z,22.80
2018-05-11T15:50:09.595Z,23.00
2018-05-11T15:52:37.829Z,23.10
2018-05-11T15:55:06.041Z,23.10
2018-05-11T15:57:34.266Z,22.70
2018-05-11T16:00:02.796Z,22.80
2018-05-11T16:02:31.123Z,22.80
2018-05-11T16:04:59.356Z,22.90
2018-05-11T16:07:27.661Z,22.90
2018-05-11T16:09:56.016Z,22.90
2018-05-11T16:12:24.229Z,22.90
2018-05-11T16:14:52.449Z,22.90
2018-05-11T16:17:20.679Z,22.60
2018-05-11T16:19:48.937Z,22.50
2018-05-11T16:22:17.911Z,22.50
2018-05-11T16:24:47.640Z,22.40
2018-05-11T16:27:16.615Z,22.30
2018-05-11T16:29:45.636Z,22.30
2018-05-11T16:32:13.854Z,22.30
2018-05-11T16:34:42.106Z,22.30
2018-05-11T16:37:10.329Z,22.30
2018-05-11T16:39:38.616Z,22.30
2018-05-11T16:42:06.778Z,22.20
2018-05-11T16:44:35.013Z,22.20
2018-05-11T16:47:03.225Z,22.20
2018-05-11T16:49:31.534Z,22.10
2018-05-11T16:51:59.756Z,22.00
2018-05-11T16:54:27.976Z,21.90
2018-05-11T16:56:56.186Z,21.80
2018-05-11T16:59:24.417Z,21.80
2018-05-11T17:01:53.417Z,21.90
2018-05-11T17:04:21.643Z,21.80
2018-05-11T17:06:49.866Z,21.90
2018-05-11T17:09:18.968Z,21.80
2018-05-11T17:11:47.166Z,21.80
2018-05-11T17:14:15.444Z,21.90
2018-05-11T17:16:43.652Z,21.70
2018-05-11T17:19:11.908Z,21.70
2018-05-11T17:21:40.084Z,21.80
2018-05-11T17:24:08.345Z,21.70
2018-05-11T17:26:36.589Z,21.70
2018-05-11T17:29:05.685Z,21.60
2018-05-11T17:31:33.960Z,21.60
2018-05-11T17:34:02.193Z,21.60
2018-05-11T17:36:30.396Z,21.50
2018-05-11T17:38:59.405Z,21.50
2018-05-11T17:41:27.669Z,21.40
2018-05-11T17:43:56.690Z,21.40
2018-05-11T17:46:24.956Z,21.40
2018-05-11T17:48:53.197Z,21.40
2018-05-11T17:51:21.409Z,21.40
2018-05-11T17:53:49.637Z,21.30
2018-05-11T17:56:17.862Z,21.20
2018-05-11T17:58:46.070Z,21.20
2018-05-11T18:01:14.296Z,21.10
2018-05-11T18:03:42.506Z,21.10
2018-05-11T18:06:10.741Z,21.10
2018-05-11T18:08:38.956Z,21.10
2018-05-11T18:11:07.193Z,21.00
2018-05-11T18:13:36.161Z,21.00
2018-05-11T18:16:04.394Z,21.00
2018-05-11T18:18:32.674Z,21.00
2018-05-11T18:21:00.914Z,21.00
2018-05-11T18:23:29.198Z,21.00
2018-05-11T18:25:57.418Z,20.90
2018-05-11T18:28:26.398Z,20.90
2018-05-11T18:30:54.640Z,20.90
2018-05-11T18:33:23.610Z,20.80
2018-05-11T18:35:52.598Z,20.80
2018-05-11T18:38:21.572Z,20.80
2018-05-11T18:40:49.794Z,20.80
2018-05-11T18:43:18.007Z,20.70
2018-05-11T18:45:46.236Z,20.70
2018-05-11T18:48:14.461Z,20.70
2018-05-11T18:50:42.681Z,20.60
2018-05-11T18:53:11.131Z,20.50
2018-05-11T18:55:39.128Z,20.50
2018-05-11T18:58:07.411Z,20.50
2018-05-11T19:00:35.643Z,20.50
2018-05-11T19:03:04.115Z,20.40
2018-05-11T19:05:32.368Z,20.40
2018-05-11T19:08:00.587Z,20.40
2018-05-11T19:10:28.806Z,20.40
2018-05-11T19:12:57.007Z,20.30
2018-05-11T19:15:25.228Z,20.30
2018-05-11T19:17:53.492Z,20.30
2018-05-11T19:20:21.751Z,20.30
2018-05-11T19:22:49.954Z,20.20
2018-05-11T19:25:18.953Z,20.20
2018-05-11T19:27:47.235Z,20.20
2018-05-11T19:30:15.461Z,20.20
2018-05-11T19:32:43.688Z,20.10
2018-05-11T19:35:11.943Z,20.10
2018-05-11T19:37:40.911Z,20.10
2018-05-11T19:40:09.685Z,20.10
2018-05-11T19:42:37.892Z,20.10
2018-05-11T19:45:06.890Z,20.00
2018-05-11T19:47:35.875Z,20.00
2018-05-11T19:50:05.250Z,19.90
2018-05-11T19:52:34.252Z,20.00
2018-05-11T19:55:02.483Z,20.00
2018-05-11T19:57:30.710Z,20.00
2018-05-11T19:59:59.708Z,19.90
2018-05-11T20:02:27.926Z,19.90
2018-05-11T20:04:56.161Z,19.80
2018-05-11T20:07:25.176Z,19.70
2018-05-11T20:09:53.443Z,19.70
2018-05-11T20:12:21.669Z,19.60
2018-05-11T20:14:49.885Z,19.60
2018-05-11T20:17:18.881Z,19.50
2018-05-11T20:19:47.163Z,19.50
2018-05-11T20:22:16.165Z,19.50
2018-05-11T20:24:44.702Z,19.50
2018-05-11T20:27:12.941Z,19.50
2018-05-11T20:29:41.339Z,19.50
2018-05-11T20:32:09.568Z,19.40
2018-05-11T20:34:37.799Z,19.40
2018-05-11T20:37:06.112Z,19.30
2018-05-11T20:39:34.404Z,19.40
2018-05-11T20:42:02.649Z,19.30
2018-05-11T20:44:31.629Z,19.30
2018-05-11T20:47:00.008Z,19.30
2018-05-11T20:49:28.056Z,19.30
2018-05-11T20:51:56.279Z,19.30
2018-05-11T20:54:24.553Z,19.30
2018-05-11T20:56:52.790Z,19.30
2018-05-11T20:59:20.996Z,19.30
2018-05-11T21:01:49.985Z,19.10
2018-05-11T21:04:18.264Z,19.10
2018-05-11T21:06:47.256Z,19.10
2018-05-11T21:09:16.264Z,19.10
2018-05-11T21:11:44.541Z,19.10
2018-05-11T21:14:13.633Z,19.10
2018-05-11T21:16:41.909Z,19.00
2018-05-11T21:19:10.193Z,19.00
2018-05-11T21:21:38.418Z,19.00
2018-05-11T21:24:06.657Z,19.10
2018-05-11T21:26:34.873Z,19.00
2018-05-11T21:29:03.196Z,19.00
2018-05-11T21:31:31.442Z,19.00
2018-05-11T21:34:00.469Z,19.00
2018-05-11T21:36:28.732Z,18.90
2018-05-11T21:38:56.960Z,18.90
2018-05-11T21:41:25.208Z,18.90
2018-05-11T21:43:53.433Z,18.90
2018-05-11T21:46:21.640Z,18.90
2018-05-11T21:48:49.873Z,18.90
2018-05-11T21:51:18.100Z,18.90
2018-05-11T21:53:46.348Z,18.80
2018-05-11T21:56:14.624Z,18.80
2018-05-11T21:58:43.692Z,18.80
2018-05-11T22:01:11.908Z,18.80
2018-05-11T22:03:40.135Z,18.80
2018-05-11T22:06:09.137Z,18.80
2018-05-11T22:08:37.467Z,18.80
2018-05-11T22:11:05.727Z,18.70
2018-05-11T22:13:33.946Z,18.70
2018-05-11T22:16:02.157Z,18.60
2018-05-11T22:18:31.169Z,18.60
2018-05-11T22:20:59.437Z,18.60
2018-05-11T22:23:27.706Z,18.60
2018-05-11T22:25:55.913Z,18.50
2018-05-11T22:28:24.152Z,18.50
2018-05-11T22:30:53.128Z,18.40
2018-05-11T22:33:22.133Z,18.40
2018-05-11T22:35:51.120Z,18.50
2018-05-11T22:38:20.140Z,18.50
2018-05-11T22:40:48.366Z,18.40
2018-05-11T22:43:16.585Z,18.40
2018-05-11T22:45:44.859Z,18.40
2018-05-11T22:48:13.097Z,18.40
2018-05-11T22:50:41.321Z,18.30
2018-05-11T22:53:09.575Z,18.30
2018-05-11T22:55:38.069Z,18.20
2018-05-11T22:58:06.344Z,18.20
2018-05-11T23:00:41.684Z,18.20
2018-05-11T23:03:10.151Z,18.20
2018-05-11T23:05:39.129Z,18.10
2018-05-11T23:08:08.133Z,18.10
2018-05-11T23:10:36.348Z,18.10
2018-05-11T23:13:04.589Z,18.10
2018-05-11T23:15:32.864Z,18.20
2018-05-11T23:18:01.082Z,18.10
2018-05-11T23:20:29.322Z,18.10
2018-05-11T23:22:57.538Z,18.10
2018-05-11T23:25:25.875Z,18.10
2018-05-11T23:27:54.157Z,18.00
2018-05-11T23:30:22.338Z,18.10
2018-05-11T23:32:50.565Z,18.10
2018-05-11T23:35:19.563Z,18.00
2018-05-11T23:37:48.552Z,17.90
2018-05-11T23:40:17.164Z,17.90
2018-05-11T23:42:45.393Z,17.80
2018-05-11T23:45:13.613Z,17.80
2018-05-11T23:47:42.369Z,17.80
2018-05-11T23:50:10.805Z,17.80
2018-05-11T23:52:39.009Z,17.90
2018-05-11T23:55:07.337Z,17.90
2018-05-11T23:57:35.564Z,17.90
